sensor_id;sensor_type;location;lat;lon;timestamp;pressure;altitude;pressure_sealevel;temperature;humidity
78679;BME280;67994;59.334;13.528;2023-07-31T00:00:00;99800.0;;;16.0;78.9
78679;BME280;67994;59.334;13.528;2023-07-31T00:01:00;99800.0;;;15.9;78.6
78679;BME280;67994;59.334;13.528;2023-07-31T00:02:00;99800.0;;;15.9;79.0
78679;BME280;67994;59.334;13.528;2023-07-31T00:03:00;99800.0;;;16.1;77.9
78679;BME280;67994;59.334;13.528;2023-07-31T00:04:00;99800.0;;;16.0;78.1
78679;BME280;67994;59.334;13.528;2023-07-31T00:05:00;99800.0;;;16.0;78.9
78679;BME280;67994;59.334;13.528;2023-07-31T00:06:00;99800.0;;;16.0;77.9
78679;BME280;67994;59.334;13.528;2023-07-31T00:07:00;99800.0;;;16.1;78.6
78679;BME280;67994;59.334;13.528;2023-07-31T00:08:00;99800.0;;;16.1;77.7
78679;BME280;67994;59.334;13.528;2023-07-31T00:09:00;99800.0;;;16.1;77.3
78679;BME280;67994;59.334;13.528;2023-07-31T00:10:00;99800.0;;;16.1;78.4
78679;BME280;67994;59.334;13.528;2023-07-31T00:11:00;99800.0;;;16.1;78.2
78679;BME280;67994;59.334;13.528;2023-07-31T00:12:00;99800.0;;;16.2;78.3
78679;BME280;67994;59.334;13.528;2023-07-31T00:13:00;99800.0;;;16.1;78.4
78679;BME280;67994;59.334;13.528;2023-07-31T00:14:00;99800.0;;;16.1;77.7
78679;BME280;67994;59.334;13.528;2023-07-31T00:15:00;99800.0;;;16.1;78.6
78679;BME280;67994;59.334;13.528;2023-07-31T00:16:00;99800.0;;;16.1;78.2
78679;BME280;67994;59.334;13.528;2023-07-31T00:17:00;99800.0;;;16.1;78.5
78679;BME280;67994;59.334;13.528;2023-07-31T00:18:00;99800.0;;;16.1;78.9
78679;BME280;67994;59.334;13.528;2023-07-31T00:19:00;99800.0;;;16.0;78.8
78679;BME280;67994;59.334;13.528;2023-07-31T00:20:00;99800.0;;;16.0;79.0
78679;BME280;67994;59.334;13.528;2023-07-31T00:21:00;99800.0;;;16.0;79.2
78679;BME280;67994;59.334;13.528;2023-07-31T00:22:00;99800.0;;;15.9;79.4
78679;BME280;67994;59.334;13.528;2023-07-31T00:23:00;99800.0;;;16.0;78.8
78679;BME280;67994;59.334;13.528;2023-07-31T00:24:00;99800.0;;;16.0;78.7
78679;BME280;67994;59.334;13.528;2023-07-31T00:25:00;99800.0;;;16.0;78.0
78679;BME280;67994;59.334;13.528;2023-07-31T00:26:00;99800.0;;;16.0;78.0
78679;BME280;67994;59.334;13.528;2023-07-31T00:27:00;99800.0;;;16.0;78.8
78679;BME280;67994;59.334;13.528;2023-07-31T00:28:00;99800.0;;;15.9;79.1
78679;BME280;67994;59.334;13.528;2023-07-31T00:29:00;99800.0;;;16.0;79.0
78679;BME280;67994;59.334;13.528;2023-07-31T00:30:00;99800.0;;;16.0;78.4
78679;BME280;67994;59.334;13.528;2023-07-31T00:31:00;99800.0;;;15.9;78.3
78679;BME280;67994;59.334;13.528;2023-07-31T00:32:00;99800.0;;;16.0;78.3
78679;BME280;67994;59.334;13.528;2023-07-31T00:33:00;99800.0;;;16.0;79.2
78679;BME280;67994;59.334;13.528;2023-07-31T00:34:00;99800.0;;;16.0;78.7
78679;BME280;67994;59.334;13.528;2023-07-31T00:35:00;99800.0;;;16.0;78.9
78679;BME280;67994;59.334;13.528;2023-07-31T00:36:00;99800.0;;;16.0;78.1
78679;BME280;67994;59.334;13.528;2023-07-31T00:37:00;99800.0;;;16.0;79.0
78679;BME280;67994;59.334;13.528;2023-07-31T00:38:00;99800.0;;;16.0;79.1
78679;BME280;67994;59.334;13.528;2023-07-31T00:39:00;99800.0;;;16.0;79.3
78679;BME280;67994;59.334;13.528;2023-07-31T00:40:00;99800.0;;;15.9;79.7
78679;BME280;67994;59.334;13.528;2023-07-31T00:41:00;99800.0;;;15.9;79.3
78679;BME280;67994;59.334;13.528;2023-07-31T00:42:00;99800.0;;;15.9;78.8
78679;BME280;67994;59.334;13.528;2023-07-31T00:43:00;99800.0;;;16.0;78.6
78679;BME280;67994;59.334;13.528;2023-07-31T00:44:00;99800.0;;;15.9;79.5
78679;BME280;67994;59.334;13.528;2023-07-31T00:45:00;99800.0;;;15.8;79.7
78679;BME280;67994;59.334;13.528;2023-07-31T00:46:00;99800.0;;;15.8;79.8
78679;BME280;67994;59.334;13.528;2023-07-31T00:47:00;99800.0;;;15.9;79.7
78679;BME280;67994;59.334;13.528;2023-07-31T00:48:01;99800.0;;;15.8;79.6
78679;BME280;67994;59.334;13.528;2023-07-31T00:49:00;99800.0;;;15.8;79.5
78679;BME280;67994;59.334;13.528;2023-07-31T00:50:00;99800.0;;;15.8;79.7
78679;BME280;67994;59.334;13.528;2023-07-31T00:51:00;99800.0;;;15.9;78.3
78679;BME280;67994;59.334;13.528;2023-07-31T00:52:00;99800.0;;;15.8;79.1
78679;BME280;67994;59.334;13.528;2023-07-31T00:53:00;99800.0;;;15.9;78.9
78679;BME280;67994;59.334;13.528;2023-07-31T00:54:00;99800.0;;;15.9;78.8
78679;BME280;67994;59.334;13.528;2023-07-31T00:55:00;99800.0;;;15.9;78.7
78679;BME280;67994;59.334;13.528;2023-07-31T00:56:00;99800.0;;;15.9;78.9
78679;BME280;67994;59.334;13.528;2023-07-31T00:57:00;99800.0;;;15.9;78.9
78679;BME280;67994;59.334;13.528;2023-07-31T00:58:00;99800.0;;;15.9;79.0
78679;BME280;67994;59.334;13.528;2023-07-31T00:59:00;99800.0;;;15.8;79.2
78679;BME280;67994;59.334;13.528;2023-07-31T01:00:00;99800.0;;;15.9;79.0
78679;BME280;67994;59.334;13.528;2023-07-31T01:01:00;99800.0;;;15.8;79.0
78679;BME280;67994;59.334;13.528;2023-07-31T01:02:00;99800.0;;;15.8;79.2
78679;BME280;67994;59.334;13.528;2023-07-31T01:03:00;99800.0;;;15.8;79.0
78679;BME280;67994;59.334;13.528;2023-07-31T01:04:00;99800.0;;;15.8;78.8
78679;BME280;67994;59.334;13.528;2023-07-31T01:05:00;99800.0;;;15.8;78.7
78679;BME280;67994;59.334;13.528;2023-07-31T01:06:09;99800.0;;;15.8;78.9
78679;BME280;67994;59.334;13.528;2023-07-31T01:07:03;99800.0;;;15.8;78.2
78679;BME280;67994;59.334;13.528;2023-07-31T01:08:04;99800.0;;;15.8;78.6
78679;BME280;67994;59.334;13.528;2023-07-31T01:09:03;99800.0;;;15.9;78.5
78679;BME280;67994;59.334;13.528;2023-07-31T01:10:03;99800.0;;;15.8;78.9
78679;BME280;67994;59.334;13.528;2023-07-31T01:11:07;99800.0;;;15.8;78.6
78679;BME280;67994;59.334;13.528;2023-07-31T01:12:02;99800.0;;;15.8;78.6
78679;BME280;67994;59.334;13.528;2023-07-31T01:13:00;99800.0;;;15.8;78.4
78679;BME280;67994;59.334;13.528;2023-07-31T01:14:00;99800.0;;;15.7;78.4
78679;BME280;67994;59.334;13.528;2023-07-31T01:15:03;99800.0;;;15.7;78.4
78679;BME280;67994;59.334;13.528;2023-07-31T01:16:00;99800.0;;;15.7;78.6
78679;BME280;67994;59.334;13.528;2023-07-31T01:17:00;99800.0;;;15.7;77.9
78679;BME280;67994;59.334;13.528;2023-07-31T01:18:00;99800.0;;;15.7;78.1
78679;BME280;67994;59.334;13.528;2023-07-31T01:19:00;99800.0;;;15.7;78.1
78679;BME280;67994;59.334;13.528;2023-07-31T01:20:05;99800.0;;;15.7;78.3
78679;BME280;67994;59.334;13.528;2023-07-31T01:21:03;99800.0;;;15.8;77.5
78679;BME280;67994;59.334;13.528;2023-07-31T01:24:14;99800.0;;;15.8;77.4
78679;BME280;67994;59.334;13.528;2023-07-31T01:25:12;99800.0;;;15.8;77.5
78679;BME280;67994;59.334;13.528;2023-07-31T01:26:05;99800.0;;;15.9;76.8
78679;BME280;67994;59.334;13.528;2023-07-31T01:27:04;99800.0;;;15.8;77.5
78679;BME280;67994;59.334;13.528;2023-07-31T01:28:04;99800.0;;;15.7;77.7
78679;BME280;67994;59.334;13.528;2023-07-31T01:29:02;99800.0;;;15.7;78.1
78679;BME280;67994;59.334;13.528;2023-07-31T01:30:03;99800.0;;;15.7;78.0
78679;BME280;67994;59.334;13.528;2023-07-31T01:31:02;99800.0;;;15.7;78.0
78679;BME280;67994;59.334;13.528;2023-07-31T01:32:02;99800.0;;;15.6;78.6
78679;BME280;67994;59.334;13.528;2023-07-31T01:33:00;99800.0;;;15.6;78.2
78679;BME280;67994;59.334;13.528;2023-07-31T01:34:01;99800.0;;;15.6;78.2
78679;BME280;67994;59.334;13.528;2023-07-31T01:35:00;99800.0;;;15.6;78.4
78679;BME280;67994;59.334;13.528;2023-07-31T01:36:00;99800.0;;;15.6;78.3
78679;BME280;67994;59.334;13.528;2023-07-31T01:37:00;99800.0;;;15.6;78.3
78679;BME280;67994;59.334;13.528;2023-07-31T01:38:00;99800.0;;;15.6;77.7
78679;BME280;67994;59.334;13.528;2023-07-31T01:39:00;99800.0;;;15.6;78.1
78679;BME280;67994;59.334;13.528;2023-07-31T01:40:00;99800.0;;;15.6;77.9
78679;BME280;67994;59.334;13.528;2023-07-31T01:41:00;99800.0;;;15.6;78.1
78679;BME280;67994;59.334;13.528;2023-07-31T01:42:00;99800.0;;;15.6;77.8
78679;BME280;67994;59.334;13.528;2023-07-31T01:43:00;99800.0;;;15.6;78.5
78679;BME280;67994;59.334;13.528;2023-07-31T01:44:00;99800.0;;;15.6;78.3
78679;BME280;67994;59.334;13.528;2023-07-31T01:45:00;99800.0;;;15.6;78.1
78679;BME280;67994;59.334;13.528;2023-07-31T01:46:00;99800.0;;;15.7;78.1
78679;BME280;67994;59.334;13.528;2023-07-31T01:47:00;99800.0;;;15.6;78.4
78679;BME280;67994;59.334;13.528;2023-07-31T01:48:00;99800.0;;;15.6;78.1
78679;BME280;67994;59.334;13.528;2023-07-31T01:49:00;99800.0;;;15.6;78.4
78679;BME280;67994;59.334;13.528;2023-07-31T01:50:00;99800.0;;;15.6;78.1
78679;BME280;67994;59.334;13.528;2023-07-31T01:51:00;99800.0;;;15.7;78.1
78679;BME280;67994;59.334;13.528;2023-07-31T01:52:00;99800.0;;;15.7;77.9
78679;BME280;67994;59.334;13.528;2023-07-31T01:53:00;99800.0;;;15.6;78.2
78679;BME280;67994;59.334;13.528;2023-07-31T01:54:00;99800.0;;;15.6;78.3
78679;BME280;67994;59.334;13.528;2023-07-31T01:55:00;99800.0;;;15.6;78.3
78679;BME280;67994;59.334;13.528;2023-07-31T01:56:00;99800.0;;;15.6;78.5
78679;BME280;67994;59.334;13.528;2023-07-31T01:57:00;99800.0;;;15.7;78.1
78679;BME280;67994;59.334;13.528;2023-07-31T01:58:00;99800.0;;;15.6;77.8
78679;BME280;67994;59.334;13.528;2023-07-31T01:59:00;99800.0;;;15.6;78.3
78679;BME280;67994;59.334;13.528;2023-07-31T02:00:00;99800.0;;;15.6;78.3
78679;BME280;67994;59.334;13.528;2023-07-31T02:01:00;99800.0;;;15.6;78.4
78679;BME280;67994;59.334;13.528;2023-07-31T02:02:00;99800.0;;;15.6;78.4
78679;BME280;67994;59.334;13.528;2023-07-31T02:03:00;99800.0;;;15.6;78.5
78679;BME280;67994;59.334;13.528;2023-07-31T02:04:00;99800.0;;;15.5;78.7
78679;BME280;67994;59.334;13.528;2023-07-31T02:05:00;99800.0;;;15.6;77.9
78679;BME280;67994;59.334;13.528;2023-07-31T02:06:00;99800.0;;;15.7;78.4
78679;BME280;67994;59.334;13.528;2023-07-31T02:07:00;99800.0;;;15.7;78.2
78679;BME280;67994;59.334;13.528;2023-07-31T02:08:00;99800.0;;;15.7;78.3
78679;BME280;67994;59.334;13.528;2023-07-31T02:09:00;99800.0;;;15.7;78.3
78679;BME280;67994;59.334;13.528;2023-07-31T02:10:00;99800.0;;;15.7;78.4
78679;BME280;67994;59.334;13.528;2023-07-31T02:11:00;99800.0;;;15.6;77.9
78679;BME280;67994;59.334;13.528;2023-07-31T02:12:00;99800.0;;;15.7;78.2
78679;BME280;67994;59.334;13.528;2023-07-31T02:13:00;99800.0;;;15.6;78.4
78679;BME280;67994;59.334;13.528;2023-07-31T02:14:00;99800.0;;;15.7;78.3
78679;BME280;67994;59.334;13.528;2023-07-31T02:15:00;99800.0;;;15.7;78.3
78679;BME280;67994;59.334;13.528;2023-07-31T02:16:00;99800.0;;;15.7;78.3
78679;BME280;67994;59.334;13.528;2023-07-31T02:17:00;99800.0;;;15.7;78.3
78679;BME280;67994;59.334;13.528;2023-07-31T02:18:00;99800.0;;;15.7;78.3
78679;BME280;67994;59.334;13.528;2023-07-31T02:19:00;99800.0;;;15.6;78.4
78679;BME280;67994;59.334;13.528;2023-07-31T02:20:00;99800.0;;;15.6;78.7
78679;BME280;67994;59.334;13.528;2023-07-31T02:21:00;99800.0;;;15.6;78.1
78679;BME280;67994;59.334;13.528;2023-07-31T02:22:00;99800.0;;;15.6;78.6
78679;BME280;67994;59.334;13.528;2023-07-31T02:23:00;99800.0;;;15.5;78.8
78679;BME280;67994;59.334;13.528;2023-07-31T02:24:00;99800.0;;;15.5;79.2
78679;BME280;67994;59.334;13.528;2023-07-31T02:25:00;99800.0;;;15.5;79.1
78679;BME280;67994;59.334;13.528;2023-07-31T02:26:00;99800.0;;;15.5;79.1
78679;BME280;67994;59.334;13.528;2023-07-31T02:27:00;99800.0;;;15.6;78.6
78679;BME280;67994;59.334;13.528;2023-07-31T02:28:00;99800.0;;;15.6;78.6
78679;BME280;67994;59.334;13.528;2023-07-31T02:29:00;99800.0;;;15.5;78.9
78679;BME280;67994;59.334;13.528;2023-07-31T02:30:00;99800.0;;;15.6;78.5
78679;BME280;67994;59.334;13.528;2023-07-31T02:31:00;99800.0;;;15.5;78.9
78679;BME280;67994;59.334;13.528;2023-07-31T02:32:00;99800.0;;;15.6;78.6
78679;BME280;67994;59.334;13.528;2023-07-31T02:33:00;99800.0;;;15.6;78.3
78679;BME280;67994;59.334;13.528;2023-07-31T02:34:00;99800.0;;;15.7;78.4
78679;BME280;67994;59.334;13.528;2023-07-31T02:35:00;99800.0;;;15.6;78.7
78679;BME280;67994;59.334;13.528;2023-07-31T02:36:00;99800.0;;;15.6;78.8
78679;BME280;67994;59.334;13.528;2023-07-31T02:37:00;99800.0;;;15.6;78.4
78679;BME280;67994;59.334;13.528;2023-07-31T02:38:00;99800.0;;;15.7;78.4
78679;BME280;67994;59.334;13.528;2023-07-31T02:39:00;99800.0;;;15.7;78.3
78679;BME280;67994;59.334;13.528;2023-07-31T02:40:00;99800.0;;;15.7;78.4
78679;BME280;67994;59.334;13.528;2023-07-31T02:41:00;99800.0;;;15.7;78.3
78679;BME280;67994;59.334;13.528;2023-07-31T02:42:00;99800.0;;;15.7;77.9
78679;BME280;67994;59.334;13.528;2023-07-31T02:43:00;99700.0;;;15.7;78.0
78679;BME280;67994;59.334;13.528;2023-07-31T02:44:00;99700.0;;;15.7;78.1
78679;BME280;67994;59.334;13.528;2023-07-31T02:45:00;99800.0;;;15.7;78.1
78679;BME280;67994;59.334;13.528;2023-07-31T02:46:00;99700.0;;;15.8;77.9
78679;BME280;67994;59.334;13.528;2023-07-31T02:47:00;99700.0;;;15.7;78.1
78679;BME280;67994;59.334;13.528;2023-07-31T02:48:00;99700.0;;;15.8;78.1
78679;BME280;67994;59.334;13.528;2023-07-31T02:49:00;99700.0;;;15.7;78.2
78679;BME280;67994;59.334;13.528;2023-07-31T02:50:00;99700.0;;;15.8;77.9
78679;BME280;67994;59.334;13.528;2023-07-31T02:51:00;99700.0;;;15.8;78.1
78679;BME280;67994;59.334;13.528;2023-07-31T02:52:00;99700.0;;;15.8;77.8
78679;BME280;67994;59.334;13.528;2023-07-31T02:53:00;99700.0;;;15.8;78.1
78679;BME280;67994;59.334;13.528;2023-07-31T02:54:00;99700.0;;;15.8;78.0
78679;BME280;67994;59.334;13.528;2023-07-31T02:55:00;99700.0;;;15.9;77.8
78679;BME280;67994;59.334;13.528;2023-07-31T02:56:00;99700.0;;;15.8;78.0
78679;BME280;67994;59.334;13.528;2023-07-31T02:57:00;99700.0;;;15.8;78.3
78679;BME280;67994;59.334;13.528;2023-07-31T02:58:00;99700.0;;;15.8;78.3
78679;BME280;67994;59.334;13.528;2023-07-31T02:59:00;99700.0;;;15.7;78.5
78679;BME280;67994;59.334;13.528;2023-07-31T03:00:00;99700.0;;;15.7;78.5
78679;BME280;67994;59.334;13.528;2023-07-31T03:01:00;99700.0;;;15.6;78.5
78679;BME280;67994;59.334;13.528;2023-07-31T03:02:00;99700.0;;;15.7;78.2
78679;BME280;67994;59.334;13.528;2023-07-31T03:03:00;99700.0;;;15.7;78.1
78679;BME280;67994;59.334;13.528;2023-07-31T03:04:00;99700.0;;;15.8;77.9
78679;BME280;67994;59.334;13.528;2023-07-31T03:05:00;99700.0;;;15.8;77.9
78679;BME280;67994;59.334;13.528;2023-07-31T03:06:00;99700.0;;;15.8;77.8
78679;BME280;67994;59.334;13.528;2023-07-31T03:07:00;99700.0;;;15.7;78.2
78679;BME280;67994;59.334;13.528;2023-07-31T03:08:00;99700.0;;;15.7;78.4
78679;BME280;67994;59.334;13.528;2023-07-31T03:09:00;99700.0;;;15.7;78.4
78679;BME280;67994;59.334;13.528;2023-07-31T03:10:00;99700.0;;;15.7;78.6
78679;BME280;67994;59.334;13.528;2023-07-31T03:11:00;99700.0;;;15.7;78.6
78679;BME280;67994;59.334;13.528;2023-07-31T03:12:00;99700.0;;;15.7;78.4
78679;BME280;67994;59.334;13.528;2023-07-31T03:13:00;99700.0;;;15.7;78.5
78679;BME280;67994;59.334;13.528;2023-07-31T03:14:00;99700.0;;;15.7;78.3
78679;BME280;67994;59.334;13.528;2023-07-31T03:15:00;99700.0;;;15.7;78.4
78679;BME280;67994;59.334;13.528;2023-07-31T03:16:00;99700.0;;;15.7;78.4
78679;BME280;67994;59.334;13.528;2023-07-31T03:17:00;99700.0;;;15.7;78.7
78679;BME280;67994;59.334;13.528;2023-07-31T03:18:00;99700.0;;;15.7;79.1
78679;BME280;67994;59.334;13.528;2023-07-31T03:19:00;99700.0;;;15.7;79.0
78679;BME280;67994;59.334;13.528;2023-07-31T03:20:00;99700.0;;;15.7;79.1
78679;BME280;67994;59.334;13.528;2023-07-31T03:21:00;99700.0;;;15.7;79.0
78679;BME280;67994;59.334;13.528;2023-07-31T03:22:00;99700.0;;;15.7;79.1
78679;BME280;67994;59.334;13.528;2023-07-31T03:23:00;99700.0;;;15.7;79.6
78679;BME280;67994;59.334;13.528;2023-07-31T03:24:00;99700.0;;;15.7;79.2
78679;BME280;67994;59.334;13.528;2023-07-31T03:25:00;99700.0;;;15.8;78.8
78679;BME280;67994;59.334;13.528;2023-07-31T03:26:02;99700.0;;;15.8;79.4
78679;BME280;67994;59.334;13.528;2023-07-31T03:27:00;99700.0;;;15.8;79.2
78679;BME280;67994;59.334;13.528;2023-07-31T03:28:00;99700.0;;;15.8;79.3
78679;BME280;67994;59.334;13.528;2023-07-31T03:29:00;99700.0;;;15.8;79.2
78679;BME280;67994;59.334;13.528;2023-07-31T03:30:00;99700.0;;;15.9;78.8
78679;BME280;67994;59.334;13.528;2023-07-31T03:31:00;99700.0;;;15.9;78.8
78679;BME280;67994;59.334;13.528;2023-07-31T03:32:00;99700.0;;;16.0;78.6
78679;BME280;67994;59.334;13.528;2023-07-31T03:33:00;99700.0;;;15.9;78.9
78679;BME280;67994;59.334;13.528;2023-07-31T03:34:00;99700.0;;;15.9;78.7
78679;BME280;67994;59.334;13.528;2023-07-31T03:35:00;99700.0;;;15.9;79.0
78679;BME280;67994;59.334;13.528;2023-07-31T03:36:00;99700.0;;;15.9;79.2
78679;BME280;67994;59.334;13.528;2023-07-31T03:37:00;99700.0;;;15.9;79.0
78679;BME280;67994;59.334;13.528;2023-07-31T03:38:00;99700.0;;;15.9;78.9
78679;BME280;67994;59.334;13.528;2023-07-31T03:39:00;99700.0;;;15.8;79.2
78679;BME280;67994;59.334;13.528;2023-07-31T03:40:00;99700.0;;;15.8;79.4
78679;BME280;67994;59.334;13.528;2023-07-31T03:41:00;99700.0;;;15.8;79.3
78679;BME280;67994;59.334;13.528;2023-07-31T03:42:00;99700.0;;;15.9;79.3
78679;BME280;67994;59.334;13.528;2023-07-31T03:43:00;99700.0;;;15.9;79.5
78679;BME280;67994;59.334;13.528;2023-07-31T03:44:00;99700.0;;;15.9;78.8
78679;BME280;67994;59.334;13.528;2023-07-31T03:45:00;99700.0;;;15.9;78.9
78679;BME280;67994;59.334;13.528;2023-07-31T03:46:00;99700.0;;;16.0;78.8
78679;BME280;67994;59.334;13.528;2023-07-31T03:47:00;99700.0;;;16.0;78.5
78679;BME280;67994;59.334;13.528;2023-07-31T03:48:00;99700.0;;;16.0;78.5
78679;BME280;67994;59.334;13.528;2023-07-31T03:49:00;99700.0;;;16.0;78.4
78679;BME280;67994;59.334;13.528;2023-07-31T03:50:00;99700.0;;;16.0;78.4
78679;BME280;67994;59.334;13.528;2023-07-31T03:51:00;99700.0;;;16.0;78.7
78679;BME280;67994;59.334;13.528;2023-07-31T03:52:00;99700.0;;;16.0;78.5
78679;BME280;67994;59.334;13.528;2023-07-31T03:53:00;99700.0;;;16.0;78.5
78679;BME280;67994;59.334;13.528;2023-07-31T03:54:00;99700.0;;;16.0;78.5
78679;BME280;67994;59.334;13.528;2023-07-31T03:55:00;99700.0;;;16.0;78.4
78679;BME280;67994;59.334;13.528;2023-07-31T03:56:00;99700.0;;;16.0;78.5
78679;BME280;67994;59.334;13.528;2023-07-31T03:57:00;99700.0;;;16.0;78.7
78679;BME280;67994;59.334;13.528;2023-07-31T03:58:00;99700.0;;;16.0;78.9
78679;BME280;67994;59.334;13.528;2023-07-31T03:59:00;99700.0;;;16.0;78.9
78679;BME280;67994;59.334;13.528;2023-07-31T04:00:00;99700.0;;;16.0;79.0
78679;BME280;67994;59.334;13.528;2023-07-31T04:01:00;99700.0;;;16.0;78.7
78679;BME280;67994;59.334;13.528;2023-07-31T04:02:00;99700.0;;;16.1;78.8
78679;BME280;67994;59.334;13.528;2023-07-31T04:03:00;99700.0;;;16.1;78.7
78679;BME280;67994;59.334;13.528;2023-07-31T04:04:00;99700.0;;;16.1;78.5
78679;BME280;67994;59.334;13.528;2023-07-31T04:05:00;99700.0;;;16.2;78.3
78679;BME280;67994;59.334;13.528;2023-07-31T04:06:00;99700.0;;;16.2;78.5
78679;BME280;67994;59.334;13.528;2023-07-31T04:07:00;99700.0;;;16.2;78.6
78679;BME280;67994;59.334;13.528;2023-07-31T04:08:00;99700.0;;;16.2;78.6
78679;BME280;67994;59.334;13.528;2023-07-31T04:09:00;99700.0;;;16.2;78.7
78679;BME280;67994;59.334;13.528;2023-07-31T04:10:00;99700.0;;;16.2;78.7
78679;BME280;67994;59.334;13.528;2023-07-31T04:11:00;99700.0;;;16.3;77.8
78679;BME280;67994;59.334;13.528;2023-07-31T04:12:00;99700.0;;;16.3;78.2
78679;BME280;67994;59.334;13.528;2023-07-31T04:13:00;99700.0;;;16.3;78.4
78679;BME280;67994;59.334;13.528;2023-07-31T04:14:00;99700.0;;;16.3;78.4
78679;BME280;67994;59.334;13.528;2023-07-31T04:15:00;99700.0;;;16.4;78.1
78679;BME280;67994;59.334;13.528;2023-07-31T04:16:00;99700.0;;;16.4;77.7
78679;BME280;67994;59.334;13.528;2023-07-31T04:17:00;99700.0;;;16.5;77.4
78679;BME280;67994;59.334;13.528;2023-07-31T04:18:00;99700.0;;;16.5;77.9
78679;BME280;67994;59.334;13.528;2023-07-31T04:19:00;99700.0;;;16.5;77.8
78679;BME280;67994;59.334;13.528;2023-07-31T04:20:00;99700.0;;;16.5;77.8
78679;BME280;67994;59.334;13.528;2023-07-31T04:21:00;99700.0;;;16.6;77.6
78679;BME280;67994;59.334;13.528;2023-07-31T04:22:00;99700.0;;;16.6;77.8
78679;BME280;67994;59.334;13.528;2023-07-31T04:23:00;99700.0;;;16.6;77.4
78679;BME280;67994;59.334;13.528;2023-07-31T04:24:00;99700.0;;;16.6;77.6
78679;BME280;67994;59.334;13.528;2023-07-31T04:25:00;99700.0;;;16.7;77.2
78679;BME280;67994;59.334;13.528;2023-07-31T04:26:00;99700.0;;;16.9;77.0
78679;BME280;67994;59.334;13.528;2023-07-31T04:27:00;99700.0;;;16.8;76.7
78679;BME280;67994;59.334;13.528;2023-07-31T04:28:00;99700.0;;;16.9;77.2
78679;BME280;67994;59.334;13.528;2023-07-31T04:29:00;99700.0;;;17.0;77.1
78679;BME280;67994;59.334;13.528;2023-07-31T04:30:00;99700.0;;;17.1;76.1
78679;BME280;67994;59.334;13.528;2023-07-31T04:31:00;99700.0;;;17.2;76.2
78679;BME280;67994;59.334;13.528;2023-07-31T04:32:00;99700.0;;;17.2;75.8
78679;BME280;67994;59.334;13.528;2023-07-31T04:33:00;99700.0;;;17.2;75.6
78679;BME280;67994;59.334;13.528;2023-07-31T04:34:00;99700.0;;;17.3;75.3
78679;BME280;67994;59.334;13.528;2023-07-31T04:35:00;99700.0;;;17.6;74.7
78679;BME280;67994;59.334;13.528;2023-07-31T04:36:00;99700.0;;;17.7;74.5
78679;BME280;67994;59.334;13.528;2023-07-31T04:37:00;99700.0;;;17.9;73.5
78679;BME280;67994;59.334;13.528;2023-07-31T04:38:00;99700.0;;;17.9;73.5
78679;BME280;67994;59.334;13.528;2023-07-31T04:39:00;99700.0;;;17.8;73.8
78679;BME280;67994;59.334;13.528;2023-07-31T04:40:00;99700.0;;;17.7;74.3
78679;BME280;67994;59.334;13.528;2023-07-31T04:41:00;99700.0;;;17.8;73.9
78679;BME280;67994;59.334;13.528;2023-07-31T04:42:00;99700.0;;;17.7;73.6
78679;BME280;67994;59.334;13.528;2023-07-31T04:43:00;99700.0;;;17.7;74.1
78679;BME280;67994;59.334;13.528;2023-07-31T04:44:01;99700.0;;;17.9;73.2
78679;BME280;67994;59.334;13.528;2023-07-31T04:45:00;99700.0;;;18.1;72.9
78679;BME280;67994;59.334;13.528;2023-07-31T04:46:00;99700.0;;;18.2;72.5
78679;BME280;67994;59.334;13.528;2023-07-31T04:47:00;99700.0;;;18.5;71.7
78679;BME280;67994;59.334;13.528;2023-07-31T04:48:00;99700.0;;;18.9;70.6
78679;BME280;67994;59.334;13.528;2023-07-31T04:49:00;99700.0;;;19.1;69.8
78679;BME280;67994;59.334;13.528;2023-07-31T04:50:00;99700.0;;;18.9;70.5
78679;BME280;67994;59.334;13.528;2023-07-31T04:51:00;99700.0;;;18.9;70.7
78679;BME280;67994;59.334;13.528;2023-07-31T04:52:00;99700.0;;;18.8;70.3
78679;BME280;67994;59.334;13.528;2023-07-31T04:53:00;99700.0;;;18.7;71.4
78679;BME280;67994;59.334;13.528;2023-07-31T04:54:00;99700.0;;;18.7;71.4
78679;BME280;67994;59.334;13.528;2023-07-31T04:55:00;99700.0;;;18.6;71.0
78679;BME280;67994;59.334;13.528;2023-07-31T04:56:00;99700.0;;;18.4;71.5
78679;BME280;67994;59.334;13.528;2023-07-31T04:57:00;99700.0;;;18.5;70.9
78679;BME280;67994;59.334;13.528;2023-07-31T04:58:00;99700.0;;;18.6;71.3
78679;BME280;67994;59.334;13.528;2023-07-31T04:59:00;99700.0;;;18.7;69.8
78679;BME280;67994;59.334;13.528;2023-07-31T05:00:00;99700.0;;;18.7;71.1
78679;BME280;67994;59.334;13.528;2023-07-31T05:01:00;99700.0;;;18.9;70.3
78679;BME280;67994;59.334;13.528;2023-07-31T05:02:00;99700.0;;;18.9;70.8
78679;BME280;67994;59.334;13.528;2023-07-31T05:03:00;99700.0;;;19.0;69.2
78679;BME280;67994;59.334;13.528;2023-07-31T05:04:00;99700.0;;;19.2;68.9
78679;BME280;67994;59.334;13.528;2023-07-31T05:05:00;99700.0;;;19.3;69.7
78679;BME280;67994;59.334;13.528;2023-07-31T05:06:00;99700.0;;;19.3;68.5
78679;BME280;67994;59.334;13.528;2023-07-31T05:07:00;99700.0;;;19.2;69.3
78679;BME280;67994;59.334;13.528;2023-07-31T05:08:00;99700.0;;;19.3;69.1
78679;BME280;67994;59.334;13.528;2023-07-31T05:09:00;99700.0;;;19.2;68.3
78679;BME280;67994;59.334;13.528;2023-07-31T05:10:00;99700.0;;;19.1;69.0
78679;BME280;67994;59.334;13.528;2023-07-31T05:11:00;99700.0;;;18.9;69.1
78679;BME280;67994;59.334;13.528;2023-07-31T05:12:00;99700.0;;;19.0;69.0
78679;BME280;67994;59.334;13.528;2023-07-31T05:13:00;99700.0;;;19.0;69.6
78679;BME280;67994;59.334;13.528;2023-07-31T05:14:00;99700.0;;;19.1;69.2
78679;BME280;67994;59.334;13.528;2023-07-31T05:15:00;99700.0;;;19.0;68.0
78679;BME280;67994;59.334;13.528;2023-07-31T05:16:00;99700.0;;;18.9;67.9
78679;BME280;67994;59.334;13.528;2023-07-31T05:17:00;99700.0;;;18.9;68.6
78679;BME280;67994;59.334;13.528;2023-07-31T05:18:00;99700.0;;;18.9;68.3
78679;BME280;67994;59.334;13.528;2023-07-31T05:19:01;99700.0;;;18.9;68.9
78679;BME280;67994;59.334;13.528;2023-07-31T05:20:00;99700.0;;;18.9;69.2
78679;BME280;67994;59.334;13.528;2023-07-31T05:21:00;99700.0;;;19.1;69.2
78679;BME280;67994;59.334;13.528;2023-07-31T05:22:00;99700.0;;;19.1;69.0
78679;BME280;67994;59.334;13.528;2023-07-31T05:23:00;99700.0;;;19.3;69.4
78679;BME280;67994;59.334;13.528;2023-07-31T05:24:00;99700.0;;;19.4;67.9
78679;BME280;67994;59.334;13.528;2023-07-31T05:25:00;99700.0;;;19.2;68.6
78679;BME280;67994;59.334;13.528;2023-07-31T05:26:02;99700.0;;;19.3;67.6
78679;BME280;67994;59.334;13.528;2023-07-31T05:27:00;99700.0;;;19.4;67.2
78679;BME280;67994;59.334;13.528;2023-07-31T05:28:00;99700.0;;;19.3;67.3